sensor_id;sensor_type;location;lat;lon;timestamp;temperature;humidity
16823;DHT22;8528;49.976;11.858;2023-05-10T00:00:42;10.50;99.90
16823;DHT22;8528;49.976;11.858;2023-05-10T00:03:09;10.50;99.90
16823;DHT22;8528;49.976;11.858;2023-05-10T00:05:37;10.50;99.90
16823;DHT22;8528;49.976;11.858;2023-05-10T00:08:03;10.50;99.90
16823;DHT22;8528;49.976;11.858;2023-05-10T00:10:31;10.50;99.90
16823;DHT22;8528;49.976;11.858;2023-05-10T00:12:58;10.50;99.90
16823;DHT22;8528;49.976;11.858;2023-05-10T00:15:25;10.50;99.90
16823;DHT22;8528;49.976;11.858;2023-05-10T00:17:52;10.50;99.90
16823;DHT22;8528;49.976;11.858;2023-05-10T00:20:19;10.40;99.90
16823;DHT22;8528;49.976;11.858;2023-05-10T00:22:46;10.40;99.90
16823;DHT22;8528;49.976;11.858;2023-05-10T00:25:13;10.50;99.90
16823;DHT22;8528;49.976;11.858;2023-05-10T00:27:41;10.40;99.90
16823;DHT22;8528;49.976;11.858;2023-05-10T00:30:09;10.40;99.90
16823;DHT22;8528;49.976;11.858;2023-05-10T00:32:36;10.40;99.90
16823;DHT22;8528;49.976;11.858;2023-05-10T00:35:04;10.40;99.90
16823;DHT22;8528;49.976;11.858;2023-05-10T00:37:30;10.40;99.90
16823;DHT22;8528;49.976;11.858;2023-05-10T00:39:58;10.40;99.90
16823;DHT22;8528;49.976;11.858;2023-05-10T00:42:24;10.40;99.90
16823;DHT22;8528;49.976;11.858;2023-05-10T00:44:51;10.30;99.90
16823;DHT22;8528;49.976;11.858;2023-05-10T00:47:19;10.30;99.90
16823;DHT22;8528;49.976;11.858;2023-05-10T00:49:45;10.30;99.90
16823;DHT22;8528;49.976;11.858;2023-05-10T00:52:13;10.30;99.90
16823;DHT22;8528;49.976;11.858;2023-05-10T00:54:40;10.40;99.90
16823;DHT22;8528;49.976;11.858;2023-05-10T00:57:07;10.30;99.90
16823;DHT22;8528;49.976;11.858;2023-05-10T00:59:34;10.30;99.90
16823;DHT22;8528;49.976;11.858;2023-05-10T01:02:01;10.30;99.90
16823;DHT22;8528;49.976;11.858;2023-05-10T01:04:28;10.30;99.90
16823;DHT22;8528;49.976;11.858;2023-05-10T01:06:55;10.30;99.90
16823;DHT22;8528;49.976;11.858;2023-05-10T01:09:23;10.30;99.90
16823;DHT22;8528;49.976;11.858;2023-05-10T01:11:50;10.30;99.90
16823;DHT22;8528;49.976;11.858;2023-05-10T01:14:18;10.30;99.90
16823;DHT22;8528;49.976;11.858;2023-05-10T01:16:47;10.30;99.90
16823;DHT22;8528;49.976;11.858;2023-05-10T01:19:24;10.30;99.90
16823;DHT22;8528;49.976;11.858;2023-05-10T01:32:57;10.20;99.90
16823;DHT22;8528;49.976;11.858;2023-05-10T01:35:43;10.20;99.90
16823;DHT22;8528;49.976;11.858;2023-05-10T01:43:39;10.20;99.90
16823;DHT22;8528;49.976;11.858;2023-05-10T01:46:13;10.20;99.90
16823;DHT22;8528;49.976;11.858;2023-05-10T01:48:48;10.20;99.90
16823;DHT22;8528;49.976;11.858;2023-05-10T01:51:23;10.20;99.90
16823;DHT22;8528;49.976;11.858;2023-05-10T01:53:56;10.30;99.90
16823;DHT22;8528;49.976;11.858;2023-05-10T01:56:26;10.30;99.90
16823;DHT22;8528;49.976;11.858;2023-05-10T01:58:55;10.30;99.90
16823;DHT22;8528;49.976;11.858;2023-05-10T02:01:23;10.40;99.90
16823;DHT22;8528;49.976;11.858;2023-05-10T02:03:53;10.40;99.90
16823;DHT22;8528;49.976;11.858;2023-05-10T02:06:22;10.40;99.90
16823;DHT22;8528;49.976;11.858;2023-05-10T02:08:51;10.50;99.90
16823;DHT22;8528;49.976;11.858;2023-05-10T02:11:19;10.50;99.90
16823;DHT22;8528;49.976;11.858;2023-05-10T02:13:49;10.50;99.90
16823;DHT22;8528;49.976;11.858;2023-05-10T02:16:17;10.60;99.90
16823;DHT22;8528;49.976;11.858;2023-05-10T02:18:45;10.60;99.90
16823;DHT22;8528;49.976;11.858;2023-05-10T02:21:15;10.60;99.90
16823;DHT22;8528;49.976;11.858;2023-05-10T02:23:43;10.60;99.90
16823;DHT22;8528;49.976;11.858;2023-05-10T02:26:12;10.60;99.90
16823;DHT22;8528;49.976;11.858;2023-05-10T02:28:40;10.60;99.90
16823;DHT22;8528;49.976;11.858;2023-05-10T02:31:10;10.60;99.90
16823;DHT22;8528;49.976;11.858;2023-05-10T02:33:38;10.60;99.90
16823;DHT22;8528;49.976;11.858;2023-05-10T02:36:07;10.60;99.90
16823;DHT22;8528;49.976;11.858;2023-05-10T02:38:36;10.60;99.90
16823;DHT22;8528;49.976;11.858;2023-05-10T02:41:05;10.60;99.90
16823;DHT22;8528;49.976;11.858;2023-05-10T02:43:33;10.60;99.90
16823;DHT22;8528;49.976;11.858;2023-05-10T02:46:00;10.60;99.90
16823;DHT22;8528;49.976;11.858;2023-05-10T02:48:28;10.60;99.90
16823;DHT22;8528;49.976;11.858;2023-05-10T02:51:01;10.60;99.90
16823;DHT22;8528;49.976;11.858;2023-05-10T02:53:31;10.60;99.90
16823;DHT22;8528;49.976;11.858;2023-05-10T02:56:04;10.60;99.90
16823;DHT22;8528;49.976;11.858;2023-05-10T02:58:34;10.60;99.90
16823;DHT22;8528;49.976;11.858;2023-05-10T03:01:00;10.60;99.90
16823;DHT22;8528;49.976;11.858;2023-05-10T03:03:28;10.60;99.90
16823;DHT22;8528;49.976;11.858;2023-05-10T03:05:55;10.60;99.90
16823;DHT22;8528;49.976;11.858;2023-05-10T03:08:23;10.50;99.90
16823;DHT22;8528;49.976;11.858;2023-05-10T03:13:39;10.50;99.90
16823;DHT22;8528;49.976;11.858;2023-05-10T03:16:22;10.50;99.90
16823;DHT22;8528;49.976;11.858;2023-05-10T03:21:26;10.60;99.90
16823;DHT22;8528;49.976;11.858;2023-05-10T03:24:01;10.60;99.90
16823;DHT22;8528;49.976;11.858;2023-05-10T03:26:34;10.60;99.90
16823;DHT22;8528;49.976;11.858;2023-05-10T03:29:05;10.60;99.90
16823;DHT22;8528;49.976;11.858;2023-05-10T03:31:33;10.60;99.90
16823;DHT22;8528;49.976;11.858;2023-05-10T03:34:00;10.60;99.90
16823;DHT22;8528;49.976;11.858;2023-05-10T03:36:27;10.70;99.90
16823;DHT22;8528;49.976;11.858;2023-05-10T03:38:53;10.70;99.90
16823;DHT22;8528;49.976;11.858;2023-05-10T03:41:21;10.70;99.90
16823;DHT22;8528;49.976;11.858;2023-05-10T03:43:48;10.70;99.90
16823;DHT22;8528;49.976;11.858;2023-05-10T03:46:15;10.70;99.90
16823;DHT22;8528;49.976;11.858;2023-05-10T03:48:42;10.60;99.90
16823;DHT22;8528;49.976;11.858;2023-05-10T03:51:09;10.60;99.90
16823;DHT22;8528;49.976;11.858;2023-05-10T03:53:35;10.70;99.90
16823;DHT22;8528;49.976;11.858;2023-05-10T03:56:02;10.70;99.90
16823;DHT22;8528;49.976;11.858;2023-05-10T03:58:29;10.70;99.90
16823;DHT22;8528;49.976;11.858;2023-05-10T04:00:56;10.70;99.90
16823;DHT22;8528;49.976;11.858;2023-05-10T04:03:23;10.70;99.90
16823;DHT22;8528;49.976;11.858;2023-05-10T04:05:58;10.70;99.90
16823;DHT22;8528;49.976;11.858;2023-05-10T04:08:26;10.70;99.90
16823;DHT22;8528;49.976;11.858;2023-05-10T04:10:52;10.70;99.90
16823;DHT22;8528;49.976;11.858;2023-05-10T04:13:19;10.70;99.90
16823;DHT22;8528;49.976;11.858;2023-05-10T04:15:46;10.70;99.90
16823;DHT22;8528;49.976;11.858;2023-05-10T04:18:13;10.70;99.90
16823;DHT22;8528;49.976;11.858;2023-05-10T04:20:40;10.70;99.90
16823;DHT22;8528;49.976;11.858;2023-05-10T04:23:07;10.70;99.90
16823;DHT22;8528;49.976;11.858;2023-05-10T04:25:34;10.80;99.90
16823;DHT22;8528;49.976;11.858;2023-05-10T04:28:02;10.80;99.90
16823;DHT22;8528;49.976;11.858;2023-05-10T04:30:29;10.80;99.90
16823;DHT22;8528;49.976;11.858;2023-05-10T04:32:55;10.80;99.90
16823;DHT22;8528;49.976;11.858;2023-05-10T04:35:22;10.80;99.90
16823;DHT22;8528;49.976;11.858;2023-05-10T04:37:49;10.80;99.90
16823;DHT22;8528;49.976;11.858;2023-05-10T04:40:16;10.80;99.90
16823;DHT22;8528;49.976;11.858;2023-05-10T04:42:43;10.80;99.90
16823;DHT22;8528;49.976;11.858;2023-05-10T04:45:10;10.80;99.90
16823;DHT22;8528;49.976;11.858;2023-05-10T04:47:37;10.80;99.90
16823;DHT22;8528;49.976;11.858;2023-05-10T04:50:04;10.90;99.90
16823;DHT22;8528;49.976;11.858;2023-05-10T04:52:32;10.80;99.90
16823;DHT22;8528;49.976;11.858;2023-05-10T04:54:59;10.90;99.90
16823;DHT22;8528;49.976;11.858;2023-05-10T04:57:25;10.90;99.90
16823;DHT22;8528;49.976;11.858;2023-05-10T04:59:52;10.90;99.90
16823;DHT22;8528;49.976;11.858;2023-05-10T05:02:19;10.90;99.90
16823;DHT22;8528;49.976;11.858;2023-05-10T05:04:46;10.90;99.90
16823;DHT22;8528;49.976;11.858;2023-05-10T05:07:13;11.00;99.90
16823;DHT22;8528;49.976;11.858;2023-05-10T05:09:40;11.00;99.90
16823;DHT22;8528;49.976;11.858;2023-05-10T05:12:07;11.00;99.90
16823;DHT22;8528;49.976;11.858;2023-05-10T05:14:34;11.00;99.90
16823;DHT22;8528;49.976;11.858;2023-05-10T05:17:01;11.10;99.90
16823;DHT22;8528;49.976;11.858;2023-05-10T05:19:28;11.10;99.90
16823;DHT22;8528;49.976;11.858;2023-05-10T05:21:54;11.10;99.90
16823;DHT22;8528;49.976;11.858;2023-05-10T05:24:21;11.00;99.90
16823;DHT22;8528;49.976;11.858;2023-05-10T05:26:48;11.00;99.90
16823;DHT22;8528;49.976;11.858;2023-05-10T05:29:15;11.00;99.90
16823;DHT22;8528;49.976;11.858;2023-05-10T05:31:42;10.90;99.90
16823;DHT22;8528;49.976;11.858;2023-05-10T05:34:09;10.90;99.90
16823;DHT22;8528;49.976;11.858;2023-05-10T05:36:36;10.90;99.90
16823;DHT22;8528;49.976;11.858;2023-05-10T05:39:04;10.80;99.90
16823;DHT22;8528;49.976;11.858;2023-05-10T05:41:31;10.70;99.90
16823;DHT22;8528;49.976;11.858;2023-05-10T05:43:58;10.60;99.90
16823;DHT22;8528;49.976;11.858;2023-05-10T05:46:25;10.50;99.90
16823;DHT22;8528;49.976;11.858;2023-05-10T05:48:52;10.50;99.90
16823;DHT22;8528;49.976;11.858;2023-05-10T05:51:19;10.40;99.90
16823;DHT22;8528;49.976;11.858;2023-05-10T05:53:46;10.40;99.90
16823;DHT22;8528;49.976;11.858;2023-05-10T05:56:13;10.30;99.90
16823;DHT22;8528;49.976;11.858;2023-05-10T05:58:40;10.30;99.90
16823;DHT22;8528;49.976;11.858;2023-05-10T06:01:07;10.40;99.90
16823;DHT22;8528;49.976;11.858;2023-05-10T06:03:34;10.40;99.90
16823;DHT22;8528;49.976;11.858;2023-05-10T06:06:00;10.50;99.90
16823;DHT22;8528;49.976;11.858;2023-05-10T06:08:28;10.50;99.90
16823;DHT22;8528;49.976;11.858;2023-05-10T06:10:54;10.50;99.90
16823;DHT22;8528;49.976;11.858;2023-05-10T06:13:21;10.60;99.90
16823;DHT22;8528;49.976;11.858;2023-05-10T06:15:48;10.60;99.90
16823;DHT22;8528;49.976;11.858;2023-05-10T06:18:15;10.70;99.90
16823;DHT22;8528;49.976;11.858;2023-05-10T06:20:42;10.70;99.90
16823;DHT22;8528;49.976;11.858;2023-05-10T06:23:09;10.80;99.90
16823;DHT22;8528;49.976;11.858;2023-05-10T06:25:36;10.80;99.90
16823;DHT22;8528;49.976;11.858;2023-05-10T06:28:03;10.70;99.90
16823;DHT22;8528;49.976;11.858;2023-05-10T06:30:30;10.70;99.90
16823;DHT22;8528;49.976;11.858;2023-05-10T06:32:56;10.80;99.90
16823;DHT22;8528;49.976;11.858;2023-05-10T06:35:24;10.80;99.90
16823;DHT22;8528;49.976;11.858;2023-05-10T06:37:50;10.80;99.90
16823;DHT22;8528;49.976;11.858;2023-05-10T06:40:18;10.80;99.90
16823;DHT22;8528;49.976;11.858;2023-05-10T06:42:45;10.80;99.90
16823;DHT22;8528;49.976;11.858;2023-05-10T06:45:13;10.80;99.90
16823;DHT22;8528;49.976;11.858;2023-05-10T06:47:41;10.80;99.90
16823;DHT22;8528;49.976;11.858;2023-05-10T06:50:09;10.70;99.90
16823;DHT22;8528;49.976;11.858;2023-05-10T06:52:37;10.70;99.90
16823;DHT22;8528;49.976;11.858;2023-05-10T06:55:05;10.80;99.90
16823;DHT22;8528;49.976;11.858;2023-05-10T06:57:32;10.80;99.90
16823;DHT22;8528;49.976;11.858;2023-05-10T06:59:59;10.70;99.90
16823;DHT22;8528;49.976;11.858;2023-05-10T07:02:26;10.70;99.90
16823;DHT22;8528;49.976;11.858;2023-05-10T07:04:53;10.70;99.90
16823;DHT22;8528;49.976;11.858;2023-05-10T07:07:21;10.70;99.90
16823;DHT22;8528;49.976;11.858;2023-05-10T07:09:47;10.80;99.90
16823;DHT22;8528;49.976;11.858;2023-05-10T07:12:16;10.80;99.90
16823;DHT22;8528;49.976;11.858;2023-05-10T07:14:44;10.70;99.90
16823;DHT22;8528;49.976;11.858;2023-05-10T07:17:11;10.60;99.90
16823;DHT22;8528;49.976;11.858;2023-05-10T07:19:38;10.60;99.90
16823;DHT22;8528;49.976;11.858;2023-05-10T07:22:05;10.50;99.90
16823;DHT22;8528;49.976;11.858;2023-05-10T07:24:33;10.40;99.90
16823;DHT22;8528;49.976;11.858;2023-05-10T07:26:59;10.50;99.90
16823;DHT22;8528;49.976;11.858;2023-05-10T07:29:26;10.60;99.90
16823;DHT22;8528;49.976;11.858;2023-05-10T07:31:54;10.70;99.90
16823;DHT22;8528;49.976;11.858;2023-05-10T07:34:24;10.80;99.90
16823;DHT22;8528;49.976;11.858;2023-05-10T07:36:52;11.00;99.90
16823;DHT22;8528;49.976;11.858;2023-05-10T07:39:19;11.10;99.90
16823;DHT22;8528;49.976;11.858;2023-05-10T07:41:57;11.20;99.90
16823;DHT22;8528;49.976;11.858;2023-05-10T07:44:23;11.40;99.90
16823;DHT22;8528;49.976;11.858;2023-05-10T07:46:50;11.60;99.90
16823;DHT22;8528;49.976;11.858;2023-05-10T07:49:17;11.70;99.90
16823;DHT22;8528;49.976;11.858;2023-05-10T07:51:44;11.70;99.90
16823;DHT22;8528;49.976;11.858;2023-05-10T07:54:11;11.70;99.90
16823;DHT22;8528;49.976;11.858;2023-05-10T07:56:39;11.60;99.90
16823;DHT22;8528;49.976;11.858;2023-05-10T07:59:08;11.60;99.90
16823;DHT22;8528;49.976;11.858;2023-05-10T08:01:38;11.60;99.90
16823;DHT22;8528;49.976;11.858;2023-05-10T08:04:04;11.60;99.90
16823;DHT22;8528;49.976;11.858;2023-05-10T08:06:32;11.60;99.90
16823;DHT22;8528;49.976;11.858;2023-05-10T08:08:59;11.70;99.90
16823;DHT22;8528;49.976;11.858;2023-05-10T08:11:26;11.60;99.90
16823;DHT22;8528;49.976;11.858;2023-05-10T08:13:54;11.60;99.90
16823;DHT22;8528;49.976;11.858;2023-05-10T08:16:21;11.60;99.90
16823;DHT22;8528;49.976;11.858;2023-05-10T08:18:48;11.80;99.90
16823;DHT22;8528;49.976;11.858;2023-05-10T08:21:17;11.80;99.90
16823;DHT22;8528;49.976;11.858;2023-05-10T08:23:44;11.80;99.90
16823;DHT22;8528;49.976;11.858;2023-05-10T08:26:11;11.90;99.90
16823;DHT22;8528;49.976;11.858;2023-05-10T08:28:38;11.80;99.90
16823;DHT22;8528;49.976;11.858;2023-05-10T08:31:06;11.80;99.90
16823;DHT22;8528;49.976;11.858;2023-05-10T08:33:33;11.80;99.90
16823;DHT22;8528;49.976;11.858;2023-05-10T08:36:00;11.80;99.90
16823;DHT22;8528;49.976;11.858;2023-05-10T08:38:26;11.60;99.90
16823;DHT22;8528;49.976;11.858;2023-05-10T08:40:55;11.50;99.90
16823;DHT22;8528;49.976;11.858;2023-05-10T08:43:26;11.60;99.90
16823;DHT22;8528;49.976;11.858;2023-05-10T08:45:54;11.70;99.90
16823;DHT22;8528;49.976;11.858;2023-05-10T08:48:24;11.80;99.90
16823;DHT22;8528;49.976;11.858;2023-05-10T08:50:53;11.80;99.90
16823;DHT22;8528;49.976;11.858;2023-05-10T08:53:21;11.80;99.90
16823;DHT22;8528;49.976;11.858;2023-05-10T08:55:50;12.00;99.90
16823;DHT22;8528;49.976;11.858;2023-05-10T08:58:17;12.40;99.90
16823;DHT22;8528;49.976;11.858;2023-05-10T09:00:48;12.60;99.90
16823;DHT22;8528;49.976;11.858;2023-05-10T09:03:15;12.90;99.90
16823;DHT22;8528;49.976;11.858;2023-05-10T09:05:42;13.20;99.90
16823;DHT22;8528;49.976;11.858;2023-05-10T09:08:09;13.30;99.90
16823;DHT22;8528;49.976;11.858;2023-05-10T09:10:37;13.50;99.90
16823;DHT22;8528;49.976;11.858;2023-05-10T09:13:05;13.70;99.90
16823;DHT22;8528;49.976;11.858;2023-05-10T09:15:33;13.90;99.90
16823;DHT22;8528;49.976;11.858;2023-05-10T09:18:00;14.10;99.90
16823;DHT22;8528;49.976;11.858;2023-05-10T09:20:28;14.20;99.90
16823;DHT22;8528;49.976;11.858;2023-05-10T09:22:55;14.40;99.90
16823;DHT22;8528;49.976;11.858;2023-05-10T09:25:22;14.50;99.90
16823;DHT22;8528;49.976;11.858;2023-05-10T09:27:49;14.60;99.90
16823;DHT22;8528;49.976;11.858;2023-05-10T09:30:23;14.70;99.90
16823;DHT22;8528;49.976;11.858;2023-05-10T09:32:50;14.80;99.90
16823;DHT22;8528;49.976;11.858;2023-05-10T09:35:19;15.00;99.90
16823;DHT22;8528;49.976;11.858;2023-05-10T09:37:49;15.10;99.90
16823;DHT22;8528;49.976;11.858;2023-05-10T09:40:23;15.10;99.90
16823;DHT22;8528;49.976;11.858;2023-05-10T09:42:59;15.20;99.90
16823;DHT22;8528;49.976;11.858;2023-05-10T09:45:28;15.30;99.90
16823;DHT22;8528;49.976;11.858;2023-05-10T09:47:56;15.50;99.90
16823;DHT22;8528;49.976;11.858;2023-05-10T09:50:23;15.80;99.90
16823;DHT22;8528;49.976;11.858;2023-05-10T09:52:51;16.10;99.90
16823;DHT22;8528;49.976;11.858;2023-05-10T09:55:21;16.50;99.90
16823;DHT22;8528;49.976;11.858;2023-05-10T09:57:48;17.10;99.90
16823;DHT22;8528;49.976;11.858;2023-05-10T10:00:19;17.80;99.90
16823;DHT22;8528;49.976;11.858;2023-05-10T10:02:48;18.40;99.90
16823;DHT22;8528;49.976;11.858;2023-05-10T10:05:20;18.10;99.90
16823;DHT22;8528;49.976;11.858;2023-05-10T10:07:47;17.60;99.90
16823;DHT22;8528;49.976;11.858;2023-05-10T10:10:15;17.10;99.90
16823;DHT22;8528;49.976;11.858;2023-05-10T10:12:43;16.80;99.90
16823;DHT22;8528;49.976;11.858;2023-05-10T10:15:11;16.20;99.90
16823;DHT22;8528;49.976;11.858;2023-05-10T10:17:42;15.70;99.90
16823;DHT22;8528;49.976;11.858;2023-05-10T10:20:10;15.30;99.90
16823;DHT22;8528;49.976;11.858;2023-05-10T10:22:37;15.00;99.90
16823;DHT22;8528;49.976;11.858;2023-05-10T10:25:05;14.80;99.90
16823;DHT22;8528;49.976;11.858;2023-05-10T10:30:25;14.40;99.90
16823;DHT22;8528;49.976;11.858;2023-05-10T10:36:02;14.70;99.90
16823;DHT22;8528;49.976;11.858;2023-05-10T10:41:32;15.40;99.90
16823;DHT22;8528;49.976;11.858;2023-05-10T10:44:37;15.90;99.90
16823;DHT22;8528;49.976;11.858;2023-05-10T10:50:04;16.90;99.90
16823;DHT22;8528;49.976;11.858;2023-05-10T10:52:34;17.30;99.90
16823;DHT22;8528;49.976;11.858;2023-05-10T10:57:51;17.80;99.90
16823;DHT22;8528;49.976;11.858;2023-05-10T11:00:29;18.30;99.90
16823;DHT22;8528;49.976;11.858;2023-05-10T11:05:45;18.90;99.90
16823;DHT22;8528;49.976;11.858;2023-05-10T11:08:20;19.50;99.90
16823;DHT22;8528;49.976;11.858;2023-05-10T11:11:02;20.40;99.90
16823;DHT22;8528;49.976;11.858;2023-05-10T11:13:37;21.20;99.90
16823;DHT22;8528;49.976;11.858;2023-05-10T11:16:11;21.50;99.90
16823;DHT22;8528;49.976;11.858;2023-05-10T11:18:39;22.30;99.90
16823;DHT22;8528;49.976;11.858;2023-05-10T11:21:08;22.70;99.90
16823;DHT22;8528;49.976;11.858;2023-05-10T11:23:55;22.90;99.90
16823;DHT22;8528;49.976;11.858;2023-05-10T11:26:24;22.60;98.30
16823;DHT22;8528;49.976;11.858;2023-05-10T11:28:53;22.60;99.50
16823;DHT22;8528;49.976;11.858;2023-05-10T11:31:25;22.70;97.60
16823;DHT22;8528;49.976;11.858;2023-05-10T11:33:58;22.70;97.00
16823;DHT22;8528;49.976;11.858;2023-05-10T11:36:32;23.00;95.80
16823;DHT22;8528;49.976;11.858;2023-05-10T11:39:00;23.00;93.60
16823;DHT22;8528;49.976;11.858;2023-05-10T11:41:28;22.80;95.30
16823;DHT22;8528;49.976;11.858;2023-05-10T11:43:56;22.70;93.20
16823;DHT22;8528;49.976;11.858;2023-05-10T11:46:25;22.40;94.10
16823;DHT22;8528;49.976;11.858;2023-05-10T11:48:58;22.20;94.70
16823;DHT22;8528;49.976;11.858;2023-05-10T11:51:28;22.10;95.50
16823;DHT22;8528;49.976;11.858;2023-05-10T11:53:56;21.80;93.80
16823;DHT22;8528;49.976;11.858;2023-05-10T11:56:24;21.20;94.50
16823;DHT22;8528;49.976;11.858;2023-05-10T11:58:55;20.90;95.70
16823;DHT22;8528;49.976;11.858;2023-05-10T12:05:10;20.00;98.10
16823;DHT22;8528;49.976;11.858;2023-05-10T12:07:37;20.40;97.60
16823;DHT22;8528;49.976;11.858;2023-05-10T12:12:40;21.10;94.80
16823;DHT22;8528;49.976;11.858;2023-05-10T12:17:49;21.80;94.30
16823;DHT22;8528;49.976;11.858;2023-05-10T12:20:21;22.20;94.20
16823;DHT22;8528;49.976;11.858;2023-05-10T12:22:57;22.60;91.80
16823;DHT22;8528;49.976;11.858;2023-05-10T12:25:30;22.50;91.40
16823;DHT22;8528;49.976;11.858;2023-05-10T12:27:58;22.40;91.40
16823;DHT22;8528;49.976;11.858;2023-05-10T12:30:32;22.20;92.30
16823;DHT22;8528;49.976;11.858;2023-05-10T12:33:21;21.60;94.00
16823;DHT22;8528;49.976;11.858;2023-05-10T12:35:49;20.80;94.30
16823;DHT22;8528;49.976;11.858;2023-05-10T12:40:51;18.80;98.70
16823;DHT22;8528;49.976;11.858;2023-05-10T12:43:18;17.90;99.90
16823;DHT22;8528;49.976;11.858;2023-05-10T12:45:45;17.40;99.90
16823;DHT22;8528;49.976;11.858;2023-05-10T12:48:15;16.90;99.90
16823;DHT22;8528;49.976;11.858;2023-05-10T12:50:42;16.40;99.90
16823;DHT22;8528;49.976;11.858;2023-05-10T12:53:09;16.10;99.90
16823;DHT22;8528;49.976;11.858;2023-05-10T12:55:35;15.90;99.90
16823;DHT22;8528;49.976;11.858;2023-05-10T12:58:02;15.70;99.90
16823;DHT22;8528;49.976;11.858;2023-05-10T13:00:29;15.50;99.90
16823;DHT22;8528;49.976;11.858;2023-05-10T13:02:56;15.40;99.90
16823;DHT22;8528;49.976;11.858;2023-05-10T13:05:23;15.40;99.90
16823;DHT22;8528;49.976;11.858;2023-05-10T13:07:49;15.30;99.90
16823;DHT22;8528;49.976;11.858;2023-05-10T13:10:16;15.30;99.90
16823;DHT22;8528;49.976;11.858;2023-05-10T13:12:44;15.30;99.90
16823;DHT22;8528;49.976;11.858;2023-05-10T13:15:10;15.20;99.90
16823;DHT22;8528;49.976;11.858;2023-05-10T13:17:37;15.30;99.90
16823;DHT22;8528;49.976;11.858;2023-05-10T13:20:06;15.20;99.90
16823;DHT22;8528;49.976;11.858;2023-05-10T13:22:33;15.20;99.90
16823;DHT22;8528;49.976;11.858;2023-05-10T13:25:18;15.30;99.90
16823;DHT22;8528;49.976;11.858;2023-05-10T13:27:45;15.40;99.90
16823;DHT22;8528;49.976;11.858;2023-05-10T13:30:12;15.60;99.90
16823;DHT22;8528;49.976;11.858;2023-05-10T13:32:39;15.70;99.90
16823;DHT22;8528;49.976;11.858;2023-05-10T13:35:07;15.90;99.90
16823;DHT22;8528;49.976;11.858;2023-05-10T13:37:34;16.10;99.90
16823;DHT22;8528;49.976;11.858;2023-05-10T13:40:04;16.20;99.90
16823;DHT22;8528;49.976;11.858;2023-05-10T13:42:32;16.30;99.90
16823;DHT22;8528;49.976;11.858;2023-05-10T13:45:00;16.40;99.90
16823;DHT22;8528;49.976;11.858;2023-05-10T13:47:28;16.50;99.90
16823;DHT22;8528;49.976;11.858;2023-05-10T13:49:55;16.60;99.90
16823;DHT22;8528;49.976;11.858;2023-05-10T13:52:22;16.70;99.90
16823;DHT22;8528;49.976;11.858;2023-05-10T13:54:49;16.80;99.90
16823;DHT22;8528;49.976;11.858;2023-05-10T13:57:16;17.00;99.90
16823;DHT22;8528;49.976;11.858;2023-05-10T13:59:43;17.10;99.90
16823;DHT22;8528;49.976;11.858;2023-05-10T14:02:10;17.10;99.90
16823;DHT22;8528;49.976;11.858;2023-05-10T14:04:39;17.00;99.90
16823;DHT22;8528;49.976;11.858;2023-05-10T14:07:06;17.10;99.90
16823;DHT22;8528;49.976;11.858;2023-05-10T14:09:33;17.10;99.90
16823;DHT22;8528;49.976;11.858;2023-05-10T14:12:00;17.10;99.90
16823;DHT22;8528;49.976;11.858;2023-05-10T14:14:26;17.10;99.90
16823;DHT22;8528;49.976;11.858;2023-05-10T14:16:55;16.90;99.90
16823;DHT22;8528;49.976;11.858;2023-05-10T14:19:22;16.70;99.90
16823;DHT22;8528;49.976;11.858;2023-05-10T14:21:49;16.70;99.90
16823;DHT22;8528;49.976;11.858;2023-05-10T14:24:16;16.70;99.90
16823;DHT22;8528;49.976;11.858;2023-05-10T14:26:43;16.70;99.90
16823;DHT22;8528;49.976;11.858;2023-05-10T14:29:10;16.40;99.90
16823;DHT22;8528;49.976;11.858;2023-05-10T14:31:42;16.20;99.90
16823;DHT22;8528;49.976;11.858;2023-05-10T14:34:09;16.10;99.90
16823;DHT22;8528;49.976;11.858;2023-05-10T14:36:36;16.10;99.90
16823;DHT22;8528;49.976;11.858;2023-05-10T14:39:04;16.30;99.90
16823;DHT22;8528;49.976;11.858;2023-05-10T14:41:31;16.30;99.90
16823;DHT22;8528;49.976;11.858;2023-05-10T14:43:58;16.40;99.90
16823;DHT22;8528;49.976;11.858;2023-05-10T14:46:25;16.40;99.90
16823;DHT22;8528;49.976;11.858;2023-05-10T14:48:52;16.50;99.90
16823;DHT22;8528;49.976;11.858;2023-05-10T14:51:19;16.50;99.90
16823;DHT22;8528;49.976;11.858;2023-05-10T14:53:48;16.60;99.90
16823;DHT22;8528;49.976;11.858;2023-05-10T14:56:17;16.70;99.90
16823;DHT22;8528;49.976;11.858;2023-05-10T14:58:44;16.70;99.90
16823;DHT22;8528;49.976;11.858;2023-05-10T15:01:10;16.30;99.90
16823;DHT22;8528;49.976;11.858;2023-05-10T15:03:38;16.20;99.90
16823;DHT22;8528;49.976;11.858;2023-05-10T15:06:05;16.20;99.90
16823;DHT22;8528;49.976;11.858;2023-05-10T15:08:32;16.20;99.90
16823;DHT22;8528;49.976;11.858;2023-05-10T15:10:59;16.00;99.90
16823;DHT22;8528;49.976;11.858;2023-05-10T15:13:25;16.10;99.90
16823;DHT22;8528;49.976;11.858;2023-05-10T15:15:52;16.10;99.90
16823;DHT22;8528;49.976;11.858;2023-05-10T15:18:19;16.20;99.90
16823;DHT22;8528;49.976;11.858;2023-05-10T15:20:47;16.30;99.90
16823;DHT22;8528;49.976;11.858;2023-05-10T15:23:13;16.30;99.90
16823;DHT22;8528;49.976;11.858;2023-05-10T15:25:40;16.20;99.90
16823;DHT22;8528;49.976;11.858;2023-05-10T15:28:07;16.00;99.90
16823;DHT22;8528;49.976;11.858;2023-05-10T15:30:34;15.70;99.90
16823;DHT22;8528;49.976;11.858;2023-05-10T15:33:01;15.40;99.90
16823;DHT22;8528;49.976;11.858;2023-05-10T15:35:28;15.40;99.90
16823;DHT22;8528;49.976;11.858;2023-05-10T15:37:55;15.30;99.90
16823;DHT22;8528;49.976;11.858;2023-05-10T15:40:22;15.30;99.90
16823;DHT22;8528;49.976;11.858;2023-05-10T15:42:49;15.20;99.90
16823;DHT22;8528;49.976;11.858;2023-05-10T15:45:16;15.30;99.90
16823;DHT22;8528;49.976;11.858;2023-05-10T15:47:43;15.40;99.90
16823;DHT22;8528;49.976;11.858;2023-05-10T15:50:11;15.40;99.90
16823;DHT22;8528;49.976;11.858;2023-05-10T15:52:38;15.30;99.90
16823;DHT22;8528;49.976;11.858;2023-05-10T15:55:16;15.10;99.90
16823;DHT22;8528;49.976;11.858;2023-05-10T15:57:43;15.10;99.90
16823;DHT22;8528;49.976;11.858;2023-05-10T16:00:37;15.00;99.90
16823;DHT22;8528;49.976;11.858;2023-05-10T16:03:04;15.00;99.90
16823;DHT22;8528;49.976;11.858;2023-05-10T16:05:32;15.10;99.90
16823;DHT22;8528;49.976;11.858;2023-05-10T16:08:00;15.10;99.90
16823;DHT22;8528;49.976;11.858;2023-05-10T16:10:37;15.20;99.90
16823;DHT22;8528;49.976;11.858;2023-05-10T16:13:04;15.20;99.90
16823;DHT22;8528;49.976;11.858;2023-05-10T16:15:31;15.20;99.90
16823;DHT22;8528;49.976;11.858;2023-05-10T16:18:00;15.00;99.90
16823;DHT22;8528;49.976;11.858;2023-05-10T16:20:33;15.00;99.90
16823;DHT22;8528;49.976;11.858;2023-05-10T16:23:06;14.90;99.90
16823;DHT22;8528;49.976;11.858;2023-05-10T16:25:39;14.90;99.90
16823;DHT22;8528;49.976;11.858;2023-05-10T16:28:13;14.80;99.90